Time,TemperatureF,DewpointF,PressureIn,WindDirection,WindDirectionDegrees,WindSpeedMPH,WindSpeedGustMPH,Humidity,HourlyPrecipIn,Conditions,Clouds,dailyrainin,SoftwareType,DateUTC
2013-06-19 00:12:00,61.1,58.0,29.90,WNW,299,0.0,6.0,90,0.00,,,0.34,weatherlink.com 1.10,2013-06-19 04:12:00,
2013-06-19 00:27:00,60.5,58.0,29.90,WNW,282,0.0,1.0,91,0.00,,,0.34,weatherlink.com 1.10,2013-06-19 04:27:00,
2013-06-19 00:42:00,60.3,58.0,29.91,WNW,282,0.0,0.0,92,0.00,,,0.34,weatherlink.com 1.10,2013-06-19 04:42:00,
2013-06-19 00:57:00,60.2,58.0,29.91,NNW,331,0.0,0.0,92,0.00,,,0.34,weatherlink.com 1.10,2013-06-19 04:57:00,
2013-06-19 01:12:00,60.3,58.0,29.91,NW,309,8.0,9.0,91,0.00,,,0.34,weatherlink.com 1.10,2013-06-19 05:12:00,
2013-06-19 01:27:00,60.2,58.0,29.91,NW,314,0.0,1.0,91,0.00,,,0.34,weatherlink.com 1.10,2013-06-19 05:27:00,
2013-06-19 01:42:00,58.4,56.0,29.91,WSW,252,0.0,0.0,93,0.00,,,0.34,weatherlink.com 1.10,2013-06-19 05:42:00,
2013-06-19 01:57:00,58.0,57.0,29.90,WNW,300,0.0,1.0,96,0.00,,,0.34,weatherlink.com 1.10,2013-06-19 05:57:00,
2013-06-19 02:12:00,58.4,57.0,29.90,West,280,0.0,4.0,95,0.00,,,0.34,weatherlink.com 1.10,2013-06-19 06:12:00,
2013-06-19 02:27:00,57.9,57.0,29.91,WNW,283,0.0,3.0,95,0.00,,,0.34,weatherlink.com 1.10,2013-06-19 06:27:00,
2013-06-19 02:42:00,57.7,57.0,29.91,West,277,0.0,4.0,96,0.00,,,0.34,weatherlink.com 1.10,2013-06-19 06:42:00,
2013-06-19 02:57:00,58.2,57.0,29.90,NNW,346,0.0,4.0,97,0.00,,,0.34,weatherlink.com 1.10,2013-06-19 06:57:00,
2013-06-19 03:12:00,58.2,57.0,29.90,NNW,347,0.0,7.0,96,0.00,,,0.34,weatherlink.com 1.10,2013-06-19 07:12:00,
2013-06-19 03:27:00,57.4,56.0,29.91,NW,318,0.0,0.0,95,0.00,,,0.34,weatherlink.com 1.10,2013-06-19 07:27:00,
2013-06-19 03:42:00,57.6,57.0,29.91,NW,319,0.0,1.0,96,0.00,,,0.34,weatherlink.com 1.10,2013-06-19 07:42:00,
2013-06-19 03:57:00,56.9,56.0,29.91,NW,319,0.0,0.0,95,0.00,,,0.34,weatherlink.com 1.10,2013-06-19 07:57:00,
2013-06-19 04:12:00,57.2,56.0,29.91,WNW,285,0.0,5.0,94,0.00,,,0.34,weatherlink.com 1.10,2013-06-19 08:12:00,
2013-06-19 04:27:00,56.9,56.0,29.91,NW,312,0.0,1.0,95,0.00,,,0.34,weatherlink.com 1.10,2013-06-19 08:27:00,
2013-06-19 04:42:00,55.4,54.0,29.92,WSW,256,0.0,0.0,96,0.00,,,0.34,weatherlink.com 1.10,2013-06-19 08:42:00,
2013-06-19 04:57:00,55.7,55.0,29.92,WSW,257,0.0,0.0,97,0.00,,,0.34,weatherlink.com 1.10,2013-06-19 08:57:00,
2013-06-19 05:12:00,55.5,55.0,29.93,WSW,257,0.0,3.0,97,0.00,,,0.34,weatherlink.com 1.10,2013-06-19 09:12:00,
2013-06-19 05:27:00,55.7,55.0,29.93,NE,46,0.0,0.0,97,0.00,,,0.34,weatherlink.com 1.10,2013-06-19 09:27:00,
2013-06-19 05:42:00,55.9,55.0,29.93,NNE,28,0.0,0.0,97,0.00,,,0.34,weatherlink.com 1.10,2013-06-19 09:42:00,
2013-06-19 05:57:00,55.3,54.0,29.94,NNE,28,0.0,0.0,96,0.00,,,0.34,weatherlink.com 1.10,2013-06-19 09:57:00,
2013-06-19 06:12:00,54.8,54.0,29.94,NNE,28,0.0,0.0,97,0.00,,,0.34,weatherlink.com 1.10,2013-06-19 10:12:00,
2013-06-19 06:28:00,54.1,53.0,29.95,NNE,28,0.0,0.0,97,0.00,,,0.34,weatherlink.com 1.10,2013-06-19 10:28:00,
2013-06-19 06:43:00,54.2,53.0,29.96,NNE,28,0.0,0.0,97,0.00,,,0.34,weatherlink.com 1.10,2013-06-19 10:43:00,
2013-06-19 06:58:00,54.9,54.0,29.97,NNE,28,0.0,0.0,98,0.00,,,0.34,weatherlink.com 1.10,2013-06-19 10:58:00,
2013-06-19 07:13:00,56.0,56.0,29.97,NNE,31,0.0,0.0,98,0.00,,,0.34,weatherlink.com 1.10,2013-06-19 11:13:00,
2013-06-19 07:28:00,56.6,56.0,29.98,NNE,31,0.0,0.0,98,0.00,,,0.34,weatherlink.com 1.10,2013-06-19 11:28:00,
2013-06-19 07:43:00,57.6,57.0,29.99,NW,305,0.0,1.0,98,0.00,,,0.34,weatherlink.com 1.10,2013-06-19 11:43:00,
2013-06-19 07:58:00,58.7,58.0,29.99,ENE,57,0.0,0.0,97,0.00,,,0.34,weatherlink.com 1.10,2013-06-19 11:58:00,
2013-06-19 08:13:00,59.9,59.0,29.99,ENE,57,0.0,0.0,96,0.00,,,0.34,weatherlink.com 1.10,2013-06-19 12:13:00,
2013-06-19 08:28:00,59.6,59.0,30.00,SSE,164,0.0,1.0,96,0.00,,,0.34,weatherlink.com 1.10,2013-06-19 12:28:00,
2013-06-19 08:43:00,59.8,59.0,30.00,SSE,164,0.0,0.0,96,0.00,,,0.34,weatherlink.com 1.10,2013-06-19 12:43:00,
2013-06-19 08:58:00,60.5,59.0,30.00,South,188,0.0,1.0,95,0.00,,,0.34,weatherlink.com 1.10,2013-06-19 12:58:00,
2013-06-19 09:13:00,61.4,59.0,30.00,West,279,0.0,0.0,93,0.00,,,0.34,weatherlink.com 1.10,2013-06-19 13:13:00,
2013-06-19 09:28:00,62.2,60.0,30.00,West,261,0.0,5.0,92,0.00,,,0.00,weatherlink.com 1.10,2013-06-19 13:28:00,
2013-06-19 09:43:00,63.6,59.0,30.00,West,261,0.0,1.0,86,0.00,,,0.00,weatherlink.com 1.10,2013-06-19 13:43:00,
2013-06-19 09:58:00,65.6,61.0,30.00,West,261,0.0,0.0,84,0.00,,,0.00,weatherlink.com 1.10,2013-06-19 13:58:00,
2013-06-19 10:13:00,66.6,61.0,29.99,NNE,30,1.0,4.0,82,0.00,,,0.00,weatherlink.com 1.10,2013-06-19 14:13:00,
2013-06-19 10:28:00,66.8,59.0,29.99,North,360,4.0,7.0,77,0.00,,,0.00,weatherlink.com 1.10,2013-06-19 14:28:00,
2013-06-19 10:43:00,66.7,60.0,29.99,North,5,2.0,7.0,78,0.00,,,0.00,weatherlink.com 1.10,2013-06-19 14:43:00,
2013-06-19 10:58:00,67.0,59.0,29.99,North,355,4.0,7.0,75,0.00,,,0.00,weatherlink.com 1.10,2013-06-19 14:58:00,
2013-06-19 11:13:00,67.7,60.0,29.99,NNE,26,3.0,8.0,77,0.00,,,0.00,weatherlink.com 1.10,2013-06-19 15:13:00,
2013-06-19 11:28:00,68.3,60.0,30.00,NNE,33,0.0,5.0,76,0.00,,,0.00,weatherlink.com 1.10,2013-06-19 15:28:00,
2013-06-19 11:43:00,69.0,59.0,30.00,NNW,348,0.0,5.0,70,0.00,,,0.00,weatherlink.com 1.10,2013-06-19 15:43:00,
2013-06-19 11:58:00,69.4,58.0,30.00,North,5,6.0,6.0,68,0.00,,,0.00,weatherlink.com 1.10,2013-06-19 15:58:00,
2013-06-19 12:13:00,69.7,57.0,30.00,North,355,0.0,4.0,65,0.00,,,0.00,weatherlink.com 1.10,2013-06-19 16:13:00,
2013-06-19 12:28:00,70.4,59.0,30.00,NE,50,0.0,3.0,67,0.00,,,0.00,weatherlink.com 1.10,2013-06-19 16:28:00,
2013-06-19 12:44:00,70.4,59.0,30.00,NE,35,0.0,1.0,67,0.00,,,0.00,weatherlink.com 1.10,2013-06-19 16:44:00,
2013-06-19 12:59:00,71.0,59.0,30.00,ENE,76,4.0,8.0,66,0.00,,,0.00,weatherlink.com 1.10,2013-06-19 16:59:00,
2013-06-19 13:14:00,71.2,58.0,30.00,ENE,57,0.0,7.0,64,0.00,,,0.00,weatherlink.com 1.10,2013-06-19 17:14:00,
2013-06-19 13:29:00,71.5,59.0,30.00,NNE,33,2.0,8.0,66,0.00,,,0.00,weatherlink.com 1.10,2013-06-19 17:29:00,
2013-06-19 13:44:00,71.7,57.0,29.99,ENE,58,7.0,9.0,61,0.00,,,0.00,weatherlink.com 1.10,2013-06-19 17:44:00,
2013-06-19 13:59:00,71.3,59.0,29.99,North,351,6.0,8.0,65,0.00,,,0.00,weatherlink.com 1.10,2013-06-19 17:59:00,
2013-06-19 14:14:00,70.6,62.0,29.99,South,188,4.0,10.0,74,0.00,,,0.00,weatherlink.com 1.10,2013-06-19 18:14:00,
2013-06-19 14:29:00,69.6,62.0,29.99,SSW,199,3.0,7.0,78,0.00,,,0.00,weatherlink.com 1.10,2013-06-19 18:29:00,
2013-06-19 14:44:00,68.4,62.0,29.99,SW,221,4.0,9.0,80,0.00,,,0.00,weatherlink.com 1.10,2013-06-19 18:44:00,
2013-06-19 14:59:00,68.3,62.0,29.99,SW,226,6.0,12.0,81,0.00,,,0.00,weatherlink.com 1.10,2013-06-19 18:59:00,
2013-06-19 15:14:00,68.9,63.0,29.98,SSE,163,1.0,6.0,82,0.00,,,0.00,weatherlink.com 1.10,2013-06-19 19:14:00,
2013-06-19 15:29:00,70.0,63.0,29.98,WSW,250,2.0,9.0,77,0.00,,,0.00,weatherlink.com 1.10,2013-06-19 19:29:00,
2013-06-19 15:44:00,69.9,61.0,29.98,ESE,117,5.0,11.0,73,0.00,,,0.00,weatherlink.com 1.10,2013-06-19 19:44:00,
2013-06-19 15:59:00,70.4,61.0,29.97,SE,142,8.0,8.0,72,0.00,,,0.00,weatherlink.com 1.10,2013-06-19 19:59:00,
2013-06-19 16:14:00,69.5,62.0,29.98,East,82,5.0,8.0,77,0.00,,,0.00,weatherlink.com 1.10,2013-06-19 20:14:00,
2013-06-19 16:29:00,67.8,63.0,29.99,NE,47,0.0,4.0,84,0.03,,,0.03,weatherlink.com 1.10,2013-06-19 20:29:00,
2013-06-19 16:44:00,65.8,63.0,29.99,West,266,4.0,5.0,90,0.07,,,0.07,weatherlink.com 1.10,2013-06-19 20:44:00,
2013-06-19 16:59:00,63.4,62.0,29.99,West,279,5.0,8.0,94,0.07,,,0.07,weatherlink.com 1.10,2013-06-19 20:59:00,
2013-06-19 17:14:00,63.3,62.0,29.99,West,279,0.0,0.0,96,0.08,,,0.08,weatherlink.com 1.10,2013-06-19 21:14:00,
2013-06-19 17:29:00,64.1,63.0,30.00,West,279,0.0,1.0,95,0.06,,,0.09,weatherlink.com 1.10,2013-06-19 21:29:00,
2013-06-19 17:44:00,65.3,64.0,30.00,West,279,0.0,0.0,95,0.02,,,0.09,weatherlink.com 1.10,2013-06-19 21:44:00,
2013-06-19 17:59:00,65.2,63.0,29.99,West,279,0.0,0.0,93,0.01,,,0.09,weatherlink.com 1.10,2013-06-19 21:59:00,
2013-06-19 18:14:00,65.3,63.0,30.00,West,279,0.0,1.0,93,0.01,,,0.09,weatherlink.com 1.10,2013-06-19 22:14:00,
2013-06-19 18:29:00,65.3,64.0,30.00,West,279,0.0,1.0,94,0.00,,,0.09,weatherlink.com 1.10,2013-06-19 22:29:00,
2013-06-19 18:44:00,64.8,63.0,30.01,West,279,0.0,1.0,95,0.00,,,0.09,weatherlink.com 1.10,2013-06-19 22:44:00,
2013-06-19 18:59:00,65.1,64.0,30.01,West,279,0.0,1.0,96,0.00,,,0.09,weatherlink.com 1.10,2013-06-19 22:59:00,
2013-06-19 19:14:00,65.9,65.0,30.01,West,261,0.0,0.0,96,0.00,,,0.09,weatherlink.com 1.10,2013-06-19 23:14:00,
2013-06-19 19:29:00,67.0,65.0,30.02,West,261,0.0,0.0,94,0.00,,,0.09,weatherlink.com 1.10,2013-06-19 23:29:00,
2013-06-19 19:44:00,66.0,63.0,30.02,ESE,107,9.0,12.0,89,0.00,,,0.09,weatherlink.com 1.10,2013-06-19 23:44:00,
2013-06-19 19:59:00,64.4,62.0,30.03,ESE,116,4.0,10.0,90,0.00,,,0.09,weatherlink.com 1.10,2013-06-19 23:59:00,
2013-06-19 20:14:00,63.8,61.0,30.03,SE,132,0.0,6.0,90,0.00,,,0.09,weatherlink.com 1.10,2013-06-20 00:14:00,
2013-06-19 20:29:00,63.2,60.0,30.03,SE,127,0.0,1.0,90,0.00,,,0.09,weatherlink.com 1.10,2013-06-20 00:29:00,
2013-06-19 20:44:00,62.6,60.0,30.04,SE,142,2.0,6.0,90,0.00,,,0.09,weatherlink.com 1.10,2013-06-20 00:44:00,
2013-06-19 20:59:00,62.3,59.0,30.04,SE,136,0.0,1.0,90,0.00,,,0.09,weatherlink.com 1.10,2013-06-20 00:59:00,
2013-06-19 21:14:00,61.9,59.0,30.04,SE,135,0.0,1.0,90,0.00,,,0.09,weatherlink.com 1.10,2013-06-20 01:14:00,
2013-06-19 21:29:00,61.6,59.0,30.05,SE,135,0.0,1.0,90,0.00,,,0.09,weatherlink.com 1.10,2013-06-20 01:29:00,
2013-06-19 21:44:00,61.3,59.0,30.05,SE,135,0.0,0.0,91,0.00,,,0.09,weatherlink.com 1.10,2013-06-20 01:44:00,
2013-06-19 21:59:00,61.5,59.0,30.07,SE,135,0.0,1.0,91,0.00,,,0.09,weatherlink.com 1.10,2013-06-20 01:59:00,
2013-06-19 22:14:00,60.8,59.0,30.08,SE,135,0.0,0.0,92,0.00,,,0.09,weatherlink.com 1.10,2013-06-20 02:14:00,
2013-06-19 22:29:00,60.4,58.0,30.09,SE,135,0.0,0.0,93,0.00,,,0.09,weatherlink.com 1.10,2013-06-20 02:29:00,
2013-06-19 22:44:00,60.3,58.0,30.09,SE,135,0.0,0.0,93,0.00,,,0.09,weatherlink.com 1.10,2013-06-20 02:44:00,
2013-06-19 22:59:00,59.9,58.0,30.09,SE,135,0.0,1.0,94,0.00,,,0.09,weatherlink.com 1.10,2013-06-20 02:59:00,
2013-06-19 23:14:00,59.6,58.0,30.10,SE,135,0.0,0.0,95,0.00,,,0.09,weatherlink.com 1.10,2013-06-20 03:14:00,
2013-06-19 23:30:00,58.6,57.0,30.10,SE,135,0.0,0.0,95,0.00,,,0.09,weatherlink.com 1.10,2013-06-20 03:30:00,
2013-06-19 23:45:00,58.3,57.0,30.11,SE,135,0.0,0.0,96,0.00,,,0.09,weatherlink.com 1.10,2013-06-20 03:45:00,